createdAt,value
2022-08-03T00:00:58.883Z,61.92
2022-08-03T00:03:22.665Z,62.02
2022-08-03T00:06:04.362Z,62.22
2022-08-03T00:08:28.830Z,62.77
2022-08-03T00:10:53.964Z,62.70
2022-08-03T00:13:19.962Z,62.91
2022-08-03T00:15:44.331Z,62.25
2022-08-03T00:18:08.392Z,62.86
2022-08-03T00:20:32.167Z,62.11
2022-08-03T00:22:55.933Z,62.48
2022-08-03T00:25:20.015Z,64.43
2022-08-03T00:27:45.287Z,62.81
2022-08-03T00:30:10.672Z,63.71
2022-08-03T00:32:34.436Z,62.50
2022-08-03T00:34:58.986Z,62.81
2022-08-03T00:37:22.958Z,62.44
2022-08-03T00:40:05.621Z,63.03
2022-08-03T00:42:29.396Z,64.52
2022-08-03T00:44:54.555Z,64.05
2022-08-03T00:47:18.227Z,63.79
2022-08-03T00:49:42.649Z,65.61
2022-08-03T00:52:07.448Z,63.62
2022-08-03T00:54:34.923Z,63.92
2022-08-03T00:56:59.590Z,63.55
2022-08-03T00:59:24.704Z,63.07
2022-08-03T01:01:50.201Z,64.21
2022-08-03T01:04:14.064Z,63.74
2022-08-03T01:06:47.800Z,63.97
2022-08-03T01:09:21.793Z,63.00
2022-08-03T01:11:59.871Z,63.57
2022-08-03T01:14:34.454Z,63.88
2022-08-03T01:17:06.930Z,64.14
2022-08-03T01:19:47.529Z,63.92
2022-08-03T01:22:45.640Z,64.29
2022-08-03T01:25:26.513Z,63.23
2022-08-03T01:28:07.721Z,66.22
2022-08-03T01:30:35.273Z,64.27
2022-08-03T01:33:05.501Z,65.16
2022-08-03T01:35:38.751Z,64.76
2022-08-03T01:38:07.472Z,64.88
2022-08-03T01:40:33.572Z,64.02
2022-08-03T01:43:00.089Z,64.52
2022-08-03T01:45:24.823Z,64.03
2022-08-03T01:47:51.340Z,64.07
2022-08-03T01:50:16.755Z,66.74
2022-08-03T01:52:43.668Z,64.01
2022-08-03T01:55:09.415Z,64.46
2022-08-03T01:57:33.205Z,64.45
2022-08-03T02:00:19.301Z,65.74
2022-08-03T02:02:45.501Z,64.20
2022-08-03T02:05:12.427Z,65.06
2022-08-03T02:07:37.868Z,64.30
2022-08-03T02:10:04.803Z,63.84
2022-08-03T02:12:31.604Z,63.75
2022-08-03T02:14:57.678Z,64.16
2022-08-03T02:17:39.899Z,64.44
2022-08-03T02:20:06.283Z,65.01
2022-08-03T02:22:32.355Z,64.52
2022-08-03T02:24:56.196Z,64.08
2022-08-03T02:27:23.538Z,63.71
2022-08-03T02:29:57.980Z,64.63
2022-08-03T02:32:26.889Z,64.41
2022-08-03T02:34:54.620Z,64.49
2022-08-03T02:37:21.176Z,64.88
2022-08-03T02:39:48.405Z,64.18
2022-08-03T02:42:16.171Z,64.15
2022-08-03T02:44:41.675Z,63.98
2022-08-03T02:47:11.764Z,64.74
2022-08-03T02:49:49.785Z,64.13
2022-08-03T02:52:17.139Z,66.06
2022-08-03T02:54:42.149Z,65.40
2022-08-03T02:57:09.772Z,65.66
2022-08-03T02:59:35.063Z,64.74
2022-08-03T03:02:01.772Z,64.35
2022-08-03T03:04:28.479Z,64.17
2022-08-03T03:06:57.245Z,65.00
2022-08-03T03:09:22.212Z,65.22
2022-08-03T03:11:46.373Z,64.99
2022-08-03T03:14:13.533Z,64.75
2022-08-03T03:16:38.723Z,64.36
2022-08-03T03:19:04.335Z,64.93
2022-08-03T03:21:29.263Z,64.79
2022-08-03T03:23:54.236Z,64.91
2022-08-03T03:26:18.561Z,65.79
2022-08-03T03:28:42.594Z,65.39
2022-08-03T03:31:08.646Z,65.54
2022-08-03T03:33:32.447Z,66.29
2022-08-03T03:35:56.680Z,65.44
2022-08-03T03:38:20.896Z,67.32
2022-08-03T03:40:44.948Z,68.68
2022-08-03T03:43:09.904Z,67.86
2022-08-03T03:45:36.165Z,67.29
2022-08-03T03:48:03.781Z,67.42
2022-08-03T03:50:27.779Z,66.95
2022-08-03T03:52:51.492Z,66.60
2022-08-03T03:55:18.618Z,67.08
2022-08-03T03:57:42.799Z,66.71
2022-08-03T04:00:08.663Z,67.70
2022-08-03T04:02:32.501Z,71.23
2022-08-03T04:05:14.892Z,71.81
2022-08-03T04:08:06.419Z,73.89
2022-08-03T04:10:48.665Z,74.48
2022-08-03T04:13:15.492Z,71.65
2022-08-03T04:15:41.219Z,71.01
2022-08-03T04:18:06.427Z,70.74
2022-08-03T04:20:34.142Z,70.32
2022-08-03T04:23:00.943Z,68.87
2022-08-03T04:25:30.603Z,69.17
2022-08-03T04:28:08.164Z,70.47
2022-08-03T04:30:47.601Z,70.42
2022-08-03T04:33:11.863Z,68.99
2022-08-03T04:36:02.301Z,69.85
2022-08-03T04:38:22.551Z,70.07
2022-08-03T04:40:48.227Z,69.59
2022-08-03T04:43:14.991Z,68.73
2022-08-03T04:45:39.435Z,69.66
2022-08-03T04:48:03.932Z,69.08
2022-08-03T04:50:29.160Z,69.85
2022-08-03T04:53:03.628Z,69.52
2022-08-03T04:55:28.758Z,70.15
2022-08-03T04:57:52.424Z,70.37
2022-08-03T05:00:17.961Z,70.26
2022-08-03T05:02:41.661Z,69.79
2022-08-03T05:05:05.859Z,69.48
2022-08-03T05:07:35.560Z,70.55
2022-08-03T05:10:02.891Z,69.00
2022-08-03T05:12:32.075Z,69.88
2022-08-03T05:14:56.575Z,69.95
2022-08-03T05:17:20.720Z,69.76
2022-08-03T05:19:44.500Z,69.79
2022-08-03T05:22:08.256Z,70.53
2022-08-03T05:24:32.014Z,71.16
2022-08-03T05:26:57.169Z,70.56
2022-08-03T05:29:21.043Z,71.23
2022-08-03T05:31:44.791Z,70.19
2022-08-03T05:34:08.543Z,69.07
2022-08-03T05:36:32.307Z,67.98
2022-08-03T05:38:59.553Z,68.54
2022-08-03T05:41:37.305Z,68.78
2022-08-03T05:44:02.860Z,66.66
2022-08-03T05:46:26.696Z,64.92
2022-08-03T05:48:50.592Z,65.42
2022-08-03T05:51:14.531Z,64.48
2022-08-03T05:53:38.516Z,64.57
2022-08-03T05:56:12.995Z,62.94
2022-08-03T05:58:39.289Z,64.37
2022-08-03T06:01:04.468Z,63.08
2022-08-03T06:03:28.669Z,61.78
2022-08-03T06:06:00.261Z,60.15
2022-08-03T06:08:24.581Z,57.77
2022-08-03T06:10:48.258Z,56.27
2022-08-03T06:13:11.975Z,55.98
2022-08-03T06:15:35.739Z,54.48
2022-08-03T06:18:02.360Z,48.09
2022-08-03T06:20:27.432Z,46.63
2022-08-03T06:23:00.904Z,47.57
2022-08-03T06:25:26.073Z,43.47
2022-08-03T06:27:49.851Z,42.91
2022-08-03T06:30:18.081Z,42.75
2022-08-03T06:32:44.504Z,46.39
2022-08-03T06:35:17.504Z,43.07
2022-08-03T06:37:45.843Z,34.98
2022-08-03T06:40:11.407Z,36.55
2022-08-03T06:42:37.683Z,37.34
2022-08-03T06:45:01.618Z,43.72
2022-08-03T06:47:25.309Z,38.29
2022-08-03T06:50:17.125Z,38.94
2022-08-03T06:52:38.528Z,36.85
2022-08-03T06:55:02.462Z,37.33
2022-08-03T06:57:26.584Z,32.11
2022-08-03T07:00:09.304Z,31.05
2022-08-03T07:02:34.017Z,36.78
2022-08-03T07:04:58.581Z,33.93
2022-08-03T07:07:22.295Z,35.09
2022-08-03T07:09:56.742Z,30.13
2022-08-03T07:12:21.715Z,32.50
2022-08-03T07:14:45.432Z,30.11
2022-08-03T07:17:11.928Z,37.09
2022-08-03T07:19:35.756Z,35.10
2022-08-03T07:22:04.215Z,31.09
2022-08-03T07:24:29.211Z,36.22
2022-08-03T07:26:54.422Z,34.49
2022-08-03T07:29:18.167Z,31.44
2022-08-03T07:31:42.239Z,32.60
2022-08-03T07:34:06.001Z,32.58
2022-08-03T07:36:29.775Z,34.72
2022-08-03T07:38:53.423Z,30.94
2022-08-03T07:41:17.244Z,31.70
2022-08-03T07:43:42.353Z,30.89
2022-08-03T07:46:06.136Z,33.42
2022-08-03T07:48:29.968Z,31.94
2022-08-03T07:50:54.027Z,33.20
2022-08-03T07:53:17.797Z,32.90
2022-08-03T07:55:41.601Z,33.71
2022-08-03T07:58:07.734Z,32.17
2022-08-03T08:00:34.049Z,32.45
2022-08-03T08:02:57.859Z,33.62
2022-08-03T08:05:22.240Z,32.74
2022-08-03T08:07:50.850Z,33.73
2022-08-03T08:10:15.556Z,33.05
2022-08-03T08:12:40.372Z,34.15
2022-08-03T08:15:04.716Z,33.19
2022-08-03T08:17:29.982Z,32.88
2022-08-03T08:19:53.834Z,31.21
2022-08-03T08:22:17.855Z,31.90
2022-08-03T08:24:48.519Z,31.64
2022-08-03T08:27:14.642Z,31.25
2022-08-03T08:29:38.379Z,30.64
2022-08-03T08:32:13.308Z,31.90
2022-08-03T08:34:38.588Z,30.99
2022-08-03T08:37:02.312Z,30.17
2022-08-03T08:39:26.072Z,28.00
2022-08-03T08:41:53.452Z,29.17
2022-08-03T08:44:17.217Z,29.65
2022-08-03T08:46:41.714Z,30.15
2022-08-03T08:49:05.771Z,29.48
2022-08-03T08:51:59.569Z,30.07
2022-08-03T08:54:22.561Z,29.43
2022-08-03T08:56:46.885Z,31.26
2022-08-03T08:59:10.728Z,30.77
2022-08-03T09:01:34.471Z,30.75
2022-08-03T09:03:58.223Z,29.64
2022-08-03T09:06:22.149Z,31.05
2022-08-03T09:08:47.380Z,31.91
2022-08-03T09:11:12.188Z,30.58
2022-08-03T09:13:36.819Z,30.61
2022-08-03T09:16:15.725Z,30.40
2022-08-03T09:18:40.531Z,30.42
2022-08-03T09:21:30.568Z,30.40
2022-08-03T09:24:02.790Z,30.55
2022-08-03T09:26:29.995Z,29.49
2022-08-03T09:29:04.694Z,29.50
2022-08-03T09:31:36.024Z,30.43
2022-08-03T09:34:01.186Z,30.50
2022-08-03T09:36:40.572Z,32.12
2022-08-03T09:39:07.781Z,31.29
2022-08-03T09:41:31.469Z,30.31
2022-08-03T09:43:57.201Z,29.41
2022-08-03T09:46:20.879Z,29.72
2022-08-03T09:48:44.628Z,33.38
2022-08-03T09:51:12.991Z,30.40
2022-08-03T09:53:59.255Z,31.85
2022-08-03T09:56:41.256Z,30.37
2022-08-03T09:59:05.100Z,29.31
2022-08-03T10:01:35.031Z,30.86
2022-08-03T10:04:04.040Z,29.65
2022-08-03T10:06:29.162Z,31.23
2022-08-03T10:09:08.908Z,29.67
2022-08-03T10:11:40.904Z,28.82
2022-08-03T10:14:07.547Z,29.55
2022-08-03T10:16:37.504Z,29.95
2022-08-03T10:19:01.265Z,27.49
2022-08-03T10:21:25.072Z,30.94
2022-08-03T10:23:49.842Z,27.33
2022-08-03T10:26:18.217Z,29.17
2022-08-03T10:28:50.904Z,26.17
2022-08-03T10:31:15.476Z,27.80
2022-08-03T10:33:50.217Z,27.64
2022-08-03T10:36:17.528Z,27.29
2022-08-03T10:38:46.741Z,30.68
2022-08-03T10:41:11.411Z,29.42
2022-08-03T10:43:49.082Z,25.69
2022-08-03T10:46:12.892Z,27.21
2022-08-03T10:48:37.957Z,24.57
2022-08-03T10:51:01.960Z,24.44
2022-08-03T10:53:40.385Z,26.90
2022-08-03T10:56:43.739Z,26.29
2022-08-03T10:59:08.979Z,24.17
2022-08-03T11:01:59.525Z,25.73
2022-08-03T11:04:26.661Z,24.16
2022-08-03T11:07:20.451Z,25.13
2022-08-03T11:09:47.664Z,24.64
2022-08-03T11:12:28.449Z,24.11
2022-08-03T11:14:59.499Z,27.76
2022-08-03T11:17:23.548Z,28.35
2022-08-03T11:19:57.422Z,22.82
2022-08-03T11:22:26.176Z,24.94
2022-08-03T11:25:02.579Z,24.05
2022-08-03T11:27:31.938Z,22.17
2022-08-03T11:30:01.616Z,22.64
2022-08-03T11:33:03.330Z,22.94
2022-08-03T11:35:30.301Z,23.87
2022-08-03T11:38:13.517Z,24.95
2022-08-03T11:40:46.844Z,24.28
2022-08-03T11:43:12.593Z,26.93
2022-08-03T11:45:38.606Z,25.17
2022-08-03T11:48:16.129Z,24.09
2022-08-03T11:50:39.903Z,24.25
2022-08-03T11:53:03.661Z,25.31
2022-08-03T11:55:30.640Z,24.70
2022-08-03T11:59:14.313Z,23.92
2022-08-03T12:00:45.557Z,24.60
2022-08-03T12:03:12.267Z,24.45
2022-08-03T12:05:51.777Z,21.35
2022-08-03T12:08:18.573Z,23.16
2022-08-03T12:10:48.557Z,24.60
2022-08-03T12:14:26.991Z,21.64
2022-08-03T12:15:59.348Z,23.00
2022-08-03T12:18:24.881Z,22.32
2022-08-03T12:20:49.506Z,21.73
2022-08-03T12:23:14.516Z,24.18
2022-08-03T12:25:40.580Z,22.91
2022-08-03T12:28:36.037Z,24.11
2022-08-03T12:31:06.499Z,24.22
2022-08-03T12:33:30.337Z,22.34
2022-08-03T12:36:07.485Z,23.73
2022-08-03T12:38:31.876Z,24.13
2022-08-03T12:41:08.718Z,21.81
2022-08-03T12:43:39.404Z,22.87
2022-08-03T12:46:14.152Z,24.15
2022-08-03T12:48:38.061Z,22.65
2022-08-03T12:51:11.072Z,22.38
2022-08-03T12:53:35.539Z,25.58
2022-08-03T12:56:05.914Z,22.38
2022-08-03T12:58:36.013Z,20.23
2022-08-03T13:00:59.991Z,23.40
2022-08-03T13:03:39.250Z,25.33
2022-08-03T13:06:12.804Z,24.03
2022-08-03T13:08:36.684Z,21.23
2022-08-03T13:11:00.401Z,23.59
2022-08-03T13:13:41.872Z,20.67
2022-08-03T13:16:06.104Z,20.68
2022-08-03T13:18:31.209Z,22.74
2022-08-03T13:20:56.684Z,23.16
2022-08-03T13:23:22.666Z,21.32
2022-08-03T13:25:55.269Z,21.39
2022-08-03T13:28:20.182Z,23.83
2022-08-03T13:30:43.980Z,22.36
2022-08-03T13:33:07.794Z,23.82
2022-08-03T13:35:32.913Z,20.16
2022-08-03T13:37:56.712Z,23.74
2022-08-03T13:40:23.673Z,20.44
2022-08-03T13:42:53.679Z,21.25
2022-08-03T13:45:17.485Z,23.36
2022-08-03T13:47:41.241Z,23.24
2022-08-03T13:50:05.737Z,23.79
2022-08-03T13:52:32.533Z,21.94
2022-08-03T13:54:56.255Z,21.91
2022-08-03T13:58:04.084Z,23.75
2022-08-03T14:00:04.050Z,23.64
2022-08-03T14:02:27.824Z,23.13
2022-08-03T14:04:51.666Z,24.06
2022-08-03T14:07:15.789Z,22.93
2022-08-03T14:09:40.960Z,23.51
2022-08-03T14:12:08.132Z,24.11
2022-08-03T14:14:32.702Z,20.97
2022-08-03T14:16:56.404Z,23.79
2022-08-03T14:19:21.355Z,23.80
2022-08-03T14:21:52.750Z,23.47
2022-08-03T14:24:30.061Z,21.40
2022-08-03T14:27:04.493Z,21.35
2022-08-03T14:29:31.111Z,23.11
2022-08-03T14:32:09.598Z,22.88
2022-08-03T14:34:34.476Z,22.09
2022-08-03T14:36:58.236Z,24.12
2022-08-03T14:39:22.084Z,21.13
2022-08-03T14:41:45.933Z,24.34
2022-08-03T14:44:11.140Z,25.23
2022-08-03T14:46:34.812Z,24.06
2022-08-03T14:50:29.164Z,23.55
2022-08-03T14:51:53.437Z,25.79
2022-08-03T14:54:17.863Z,24.09
2022-08-03T14:56:42.399Z,22.59
2022-08-03T14:59:06.188Z,23.14
2022-08-03T15:02:02.999Z,22.10
2022-08-03T15:04:15.089Z,24.53
2022-08-03T15:06:38.848Z,23.05
2022-08-03T15:11:46.380Z,24.17
2022-08-03T15:14:10.183Z,24.15
2022-08-03T15:16:38.947Z,21.86
2022-08-03T15:19:02.705Z,22.06
2022-08-03T15:21:47.245Z,23.32
2022-08-03T15:24:11.473Z,23.55
2022-08-03T15:26:39.389Z,23.63
2022-08-03T15:29:05.364Z,24.16
2022-08-03T15:31:29.019Z,25.31
2022-08-03T15:33:54.332Z,25.86
2022-08-03T15:36:18.460Z,25.37
2022-08-03T15:38:42.227Z,24.84
2022-08-03T15:41:05.908Z,24.47
2022-08-03T15:43:38.262Z,23.76
2022-08-03T15:46:28.402Z,24.08
2022-08-03T15:48:46.981Z,25.34
2022-08-03T15:51:12.240Z,26.79
2022-08-03T15:53:36.564Z,25.56
2022-08-03T15:56:00.899Z,24.38
2022-08-03T15:59:04.552Z,25.01
2022-08-03T16:01:09.138Z,24.24
2022-08-03T16:03:34.504Z,25.71
2022-08-03T16:05:58.217Z,27.03
2022-08-03T16:08:23.348Z,25.96
2022-08-03T16:10:48.563Z,27.42
2022-08-03T16:13:14.060Z,26.21
2022-08-03T16:15:39.016Z,24.69
2022-08-03T16:18:02.878Z,27.18
2022-08-03T16:20:29.222Z,26.79
2022-08-03T16:22:57.548Z,27.41
2022-08-03T16:25:23.191Z,27.45
2022-08-03T16:28:06.815Z,26.13
2022-08-03T16:30:31.152Z,26.56
2022-08-03T16:32:58.218Z,26.65
2022-08-03T16:35:23.352Z,25.54
2022-08-03T16:37:56.122Z,26.31
2022-08-03T16:40:22.196Z,27.84
2022-08-03T16:42:45.919Z,26.69
2022-08-03T16:45:11.379Z,28.91
2022-08-03T16:47:35.228Z,28.54
2022-08-03T16:50:00.497Z,29.21
2022-08-03T16:52:24.975Z,28.20
2022-08-03T16:54:53.224Z,28.55
2022-08-03T16:57:56.281Z,27.48
2022-08-03T17:00:02.793Z,25.81
2022-08-03T17:02:28.618Z,28.44
2022-08-03T17:04:53.378Z,29.59
2022-08-03T17:07:17.353Z,28.42
2022-08-03T17:09:41.121Z,29.31
2022-08-03T17:12:05.253Z,27.71
2022-08-03T17:14:32.480Z,29.92
2022-08-03T17:17:01.484Z,27.07
2022-08-03T17:19:26.586Z,31.53
2022-08-03T17:21:58.899Z,30.90
2022-08-03T17:24:30.184Z,31.31
2022-08-03T17:26:56.705Z,31.85
2022-08-03T17:29:25.152Z,31.90
2022-08-03T17:31:52.435Z,31.31
2022-08-03T17:34:16.836Z,32.14
2022-08-03T17:37:03.169Z,32.89
2022-08-03T17:39:48.335Z,34.44
2022-08-03T17:42:29.142Z,33.98
2022-08-03T17:44:57.244Z,34.80
2022-08-03T17:47:22.581Z,34.83
2022-08-03T17:49:53.366Z,36.36
2022-08-03T17:52:27.682Z,36.31
2022-08-03T17:55:57.481Z,36.56
2022-08-03T17:58:03.212Z,37.16
2022-08-03T18:00:45.364Z,36.83
2022-08-03T18:03:24.221Z,38.14
2022-08-03T18:06:11.304Z,38.39
2022-08-03T18:08:37.087Z,39.06
2022-08-03T18:11:09.673Z,38.93
2022-08-03T18:13:44.792Z,39.06
2022-08-03T18:16:27.765Z,39.55
2022-08-03T18:18:55.155Z,40.44
2022-08-03T18:21:19.275Z,40.57
2022-08-03T18:23:43.795Z,40.94
2022-08-03T18:26:12.325Z,41.22
2022-08-03T18:28:38.434Z,41.60
2022-08-03T18:31:05.842Z,42.10
2022-08-03T18:34:19.924Z,42.47
2022-08-03T18:36:22.107Z,41.57
2022-08-03T18:38:55.554Z,43.82
2022-08-03T18:41:33.204Z,42.58
2022-08-03T18:44:07.901Z,43.46
2022-08-03T18:46:47.661Z,43.17
2022-08-03T18:49:19.050Z,43.73
2022-08-03T18:51:47.721Z,43.63
2022-08-03T18:54:57.851Z,43.76
2022-08-03T18:57:04.032Z,44.05
2022-08-03T18:59:32.456Z,43.97
2022-08-03T19:02:09.213Z,44.23
2022-08-03T19:04:36.956Z,44.60
2022-08-03T19:07:09.298Z,45.26
2022-08-03T19:09:45.075Z,44.75
2022-08-03T19:12:30.825Z,45.36
2022-08-03T19:15:05.333Z,46.10
2022-08-03T19:17:31.524Z,45.95
2022-08-03T19:19:56.047Z,45.90
2022-08-03T19:22:23.038Z,46.47
2022-08-03T19:24:49.109Z,46.60
2022-08-03T19:27:16.018Z,46.58
2022-08-03T19:29:59.064Z,46.73
2022-08-03T19:32:28.795Z,47.14
2022-08-03T19:34:52.945Z,47.53
2022-08-03T19:37:16.901Z,48.24
2022-08-03T19:39:43.688Z,48.23
2022-08-03T19:42:22.781Z,48.40
2022-08-03T19:45:13.812Z,49.96
2022-08-03T19:47:43.092Z,50.31
2022-08-03T19:50:13.776Z,50.77
2022-08-03T19:52:42.370Z,49.78
2022-08-03T19:55:12.183Z,50.75
2022-08-03T19:57:39.124Z,51.06
2022-08-03T20:00:06.681Z,50.66
2022-08-03T20:02:30.461Z,51.46
2022-08-03T20:04:54.927Z,51.66
2022-08-03T20:07:22.793Z,52.40
2022-08-03T20:09:48.285Z,50.91
2022-08-03T20:12:26.657Z,49.70
2022-08-03T20:14:52.856Z,51.89
2022-08-03T20:17:20.978Z,52.42
2022-08-03T20:19:45.145Z,52.12
2022-08-03T20:22:14.473Z,52.73
2022-08-03T20:24:42.742Z,53.17
2022-08-03T20:27:12.493Z,53.52
2022-08-03T20:32:30.852Z,53.73
2022-08-03T20:34:56.231Z,54.02
2022-08-03T20:37:22.439Z,53.33
2022-08-03T20:39:48.273Z,54.10
2022-08-03T20:42:13.663Z,53.39
2022-08-03T20:44:47.129Z,54.08
2022-08-03T20:47:30.119Z,54.11
2022-08-03T20:49:54.832Z,54.67
2022-08-03T20:52:19.204Z,54.40
2022-08-03T20:54:43.843Z,54.84
2022-08-03T20:57:10.166Z,54.07
2022-08-03T20:59:50.154Z,54.66
2022-08-03T21:04:57.738Z,54.89
2022-08-03T21:07:23.186Z,55.67
2022-08-03T21:09:52.894Z,55.98
2022-08-03T21:12:30.163Z,55.66
2022-08-03T21:13:07.089Z,53.92
2022-08-03T21:15:03.299Z,55.97
2022-08-03T21:17:40.630Z,56.58
2022-08-03T21:20:12.590Z,56.17
2022-08-03T21:22:39.393Z,56.42
2022-08-03T21:25:08.530Z,56.18
2022-08-03T21:27:33.423Z,56.09
2022-08-03T21:29:57.282Z,56.54
2022-08-03T21:32:32.509Z,56.61
2022-08-03T21:34:59.160Z,56.98
2022-08-03T21:37:23.230Z,56.69
2022-08-03T21:39:50.502Z,56.95
2022-08-03T21:42:15.040Z,56.64
2022-08-03T21:44:39.006Z,56.90
2022-08-03T21:47:04.513Z,57.17
2022-08-03T21:50:05.216Z,57.29
2022-08-03T21:52:17.468Z,57.02
2022-08-03T21:54:44.762Z,57.43
2022-08-03T21:57:19.436Z,57.31
2022-08-03T21:59:53.824Z,58.03
2022-08-03T22:02:22.842Z,57.88
2022-08-03T22:04:55.428Z,58.24
2022-08-03T22:07:23.848Z,58.76
2022-08-03T22:09:51.407Z,58.92
2022-08-03T22:12:15.504Z,58.80
2022-08-03T22:14:39.336Z,58.89
2022-08-03T22:17:06.318Z,58.81
2022-08-03T22:19:31.124Z,59.17
2022-08-03T22:21:55.590Z,59.39
2022-08-03T22:24:25.160Z,59.68
2022-08-03T22:27:03.148Z,59.64
2022-08-03T22:29:26.923Z,59.65
2022-08-03T22:31:58.315Z,59.43
2022-08-03T22:34:26.786Z,60.28
2022-08-03T22:36:50.976Z,59.89
2022-08-03T22:39:25.475Z,60.35
2022-08-03T22:41:51.698Z,61.03
2022-08-03T22:44:15.516Z,60.58
2022-08-03T22:46:40.683Z,60.64
2022-08-03T22:49:05.216Z,60.94
2022-08-03T22:51:30.260Z,61.22
2022-08-03T22:53:54.355Z,61.74
2022-08-03T22:56:18.229Z,61.64
2022-08-03T22:58:43.473Z,61.84
2022-08-03T23:01:09.841Z,61.89
2022-08-03T23:03:59.902Z,61.35
2022-08-03T23:06:25.378Z,62.15
2022-08-03T23:08:51.164Z,62.34
2022-08-03T23:11:18.131Z,62.32
2022-08-03T23:13:43.824Z,62.13
2022-08-03T23:16:10.212Z,62.56
2022-08-03T23:18:38.473Z,62.59
2022-08-03T23:21:09.254Z,62.21
2022-08-03T23:23:44.163Z,62.76
2022-08-03T23:26:09.487Z,63.08
2022-08-03T23:28:33.817Z,64.16
2022-08-03T23:31:00.649Z,63.42
2022-08-03T23:33:24.507Z,62.71
2022-08-03T23:36:22.701Z,66.26
2022-08-03T23:38:42.440Z,64.41
2022-08-03T23:41:08.128Z,64.12
2022-08-03T23:43:44.411Z,63.65
2022-08-03T23:46:19.823Z,63.44
2022-08-03T23:48:43.596Z,63.70
2022-08-03T23:51:15.740Z,65.15
2022-08-03T23:53:50.314Z,63.81
2022-08-03T23:56:25.777Z,64.12
2022-08-03T23:59:02.636Z,65.80
